Time;durP1;ratioP1;P1;durP2;ratioP2;P2;SDS_P1;SDS_P2;PMS_P1;PMS_P2;Temp;Humidity;BMP_temperature;BMP_pressure;BME280_temperature;BME280_humidity;BME280_pressure;Samples;Min_cycle;Max_cycle;Signal;HPM_P1;HPM_P2
2022/09/17 00:00:16;;;;;;;6.78;3.72;;;;;;;22.96;82.86;98399.94;5111189;28;20202;-57
2022/09/17 00:02:46;;;;;;;5.32;3.08;;;;;;;22.90;82.95;98387.31;5111154;28;20297;-53
2022/09/17 00:05:13;;;;;;;6.40;4.20;;;;;;;23.00;82.46;98409.25;5110997;28;20209;-54
2022/09/17 00:07:40;;;;;;;9.32;6.07;;;;;;;22.95;82.75;98414.13;5111222;28;20232;-53
2022/09/17 00:10:07;;;;;;;5.03;3.50;;;;;;;22.93;82.69;98409.97;5110699;28;20220;-57
2022/09/17 00:12:36;;;;;;;8.48;3.60;;;;;;;22.94;83.10;98412.47;5110941;28;20194;-57
2022/09/17 00:15:03;;;;;;;6.55;3.03;;;;;;;22.97;82.59;98406.88;5109941;28;20199;-56
2022/09/17 00:17:29;;;;;;;13.52;6.60;;;;;;;22.93;82.95;98396.75;5110713;28;20234;-54
2022/09/17 00:19:56;;;;;;;7.13;3.42;;;;;;;22.95;82.41;98392.97;5110865;28;20226;-54
2022/09/17 00:22:23;;;;;;;5.00;2.80;;;;;;;22.92;82.05;98393.25;5110834;28;20220;-52
2022/09/17 00:24:50;;;;;;;5.65;2.85;;;;;;;22.85;82.38;98400.13;5110587;28;20282;-53
2022/09/17 00:27:17;;;;;;;5.43;2.78;;;;;;;22.78;82.60;98391.13;5110415;28;20198;-53
2022/09/17 00:29:47;;;;;;;7.22;3.13;;;;;;;22.67;83.64;98391.31;5110598;28;20218;-52
2022/09/17 00:32:14;;;;;;;4.28;3.00;;;;;;;22.68;83.91;98391.16;5110729;28;20666;-53
2022/09/17 00:34:43;;;;;;;8.13;3.47;;;;;;;22.60;84.16;98383.13;5110675;28;20627;-57
2022/09/17 00:37:10;;;;;;;6.25;2.92;;;;;;;22.65;84.55;98398.56;5110518;28;20225;-54
2022/09/17 00:39:37;;;;;;;7.63;3.05;;;;;;;22.68;84.81;98398.28;5110590;28;20667;-54
2022/09/17 00:42:09;;;;;;;9.88;3.35;;;;;;;22.65;85.34;98406.50;5110287;28;20201;-53
2022/09/17 00:44:43;;;;;;;9.70;3.17;;;;;;;22.68;84.91;98398.28;5110799;28;20233;-54
2022/09/17 00:47:19;;;;;;;10.95;3.63;;;;;;;22.68;85.22;98414.13;5110637;28;20238;-58
2022/09/17 00:49:47;;;;;;;6.50;3.30;;;;;;;22.55;85.96;98406.53;5111129;28;20226;-57
2022/09/17 00:52:18;;;;;;;5.78;3.30;;;;;;;22.56;86.54;98400.28;5110475;28;20234;-57
2022/09/17 00:54:50;;;;;;;7.57;3.45;;;;;;;22.40;87.62;98398.25;5110503;28;20198;-57
2022/09/17 00:57:17;;;;;;;5.10;3.78;;;;;;;22.37;88.12;98400.34;5110374;28;20285;-56
2022/09/17 00:59:44;;;;;;;7.45;3.00;;;;;;;22.26;88.85;98387.31;5110447;28;20187;-55
2022/09/17 01:02:12;;;;;;;9.75;3.17;;;;;;;22.22;90.05;98383.31;5110052;28;20204;-56
2022/09/17 01:04:41;;;;;;;5.50;2.97;;;;;;;22.27;89.17;98394.25;5110163;28;20202;-57
2022/09/17 01:07:14;;;;;;;6.30;3.40;;;;;;;22.23;89.58;98393.75;5110264;28;20234;-53
2022/09/17 01:09:47;;;;;;;5.07;2.88;;;;;;;22.21;89.81;98386.94;5110107;28;20632;-53
2022/09/17 01:12:30;;;;;;;5.15;2.85;;;;;;;22.27;89.14;98392.47;5110383;28;20228;-54
2022/09/17 01:15:10;;;;;;;4.63;3.67;;;;;;;22.26;89.41;98384.66;5110015;28;20200;-54
2022/09/17 01:17:46;;;;;;;7.75;3.17;;;;;;;22.25;89.39;98372.41;5110235;28;20194;-56
2022/09/17 01:20:37;;;;;;;6.97;3.75;;;;;;;22.29;89.51;98373.81;5110038;28;20676;-56
2022/09/17 01:23:31;;;;;;;3.83;3.40;;;;;;;22.19;90.59;98380.94;5109653;28;20199;-56
2022/09/17 01:26:15;;;;;;;6.03;3.47;;;;;;;22.04;91.50;98389.34;5110000;28;20198;-56
2022/09/17 01:28:51;;;;;;;5.47;3.47;;;;;;;21.98;92.10;98392.56;5110197;28;20191;-57
2022/09/17 01:31:40;;;;;;;7.70;3.40;;;;;;;21.97;92.34;98398.78;5110740;28;20233;-56
2022/09/17 01:34:17;;;;;;;7.75;4.10;;;;;;;21.87;92.91;98399.78;5110192;28;20616;-56
2022/09/17 01:36:59;;;;;;;5.43;3.58;;;;;;;21.79;93.62;98399.63;5110566;28;20194;-57
2022/09/17 01:39:39;;;;;;;5.93;3.80;;;;;;;21.68;94.52;98401.47;5110270;28;20563;-52
2022/09/17 01:42:15;;;;;;;7.20;4.13;;;;;;;21.69;94.75;98397.03;5109824;28;20198;-57
2022/09/17 01:44:50;;;;;;;6.13;3.22;;;;;;;21.70;95.45;98399.53;5110645;28;20574;-54
2022/09/17 01:47:22;;;;;;;6.88;3.92;;;;;;;21.73;95.28;98396.59;5109861;28;20248;-54
2022/09/17 01:49:52;;;;;;;6.22;3.40;;;;;;;21.69;96.59;98387.28;5110026;28;20327;-57
2022/09/17 01:52:21;;;;;;;5.82;3.97;;;;;;;21.54;98.02;98399.28;5109488;28;20673;-54
2022/09/17 01:54:51;;;;;;;6.78;3.25;;;;;;;21.40;98.29;98390.94;5109580;28;20199;-53
2022/09/17 01:57:24;;;;;;;10.02;3.63;;;;;;;21.41;98.69;98398.72;5109594;28;20195;-54
2022/09/17 01:59:58;;;;;;;11.00;4.03;;;;;;;21.38;99.06;98385.81;5109714;28;20674;-55
2022/09/17 02:02:32;;;;;;;11.43;4.00;;;;;;;21.29;99.67;98369.00;5109753;28;20278;-54
2022/09/17 02:05:05;;;;;;;3.75;3.50;;;;;;;21.35;99.74;98380.78;5110068;28;20201;-53
2022/09/17 02:07:37;;;;;;;7.63;3.90;;;;;;;21.33;99.98;98374.84;5113590;28;20194;-53
2022/09/17 02:10:08;;;;;;;4.32;3.33;;;;;;;21.37;99.76;98378.84;5113393;28;20219;-54
2022/09/17 02:12:40;;;;;;;12.30;3.78;;;;;;;21.51;98.83;98378.44;5113322;28;20194;-54
2022/09/17 02:15:10;;;;;;;11.20;3.50;;;;;;;21.51;98.78;98370.50;5113090;28;20611;-54
2022/09/17 02:17:43;;;;;;;8.48;3.88;;;;;;;21.32;100.00;98363.44;5113461;28;20702;-54
2022/09/17 02:20:11;;;;;;;7.30;3.92;;;;;;;21.24;100.00;98365.09;5113110;28;20195;-54
2022/09/17 02:22:45;;;;;;;6.32;3.72;;;;;;;21.18;100.00;98361.22;5113129;28;20201;-54
2022/09/17 02:25:18;;;;;;;3.88;3.28;;;;;;;21.24;100.00;98360.66;5112940;28;20196;-54
2022/09/17 02:27:53;;;;;;;6.18;3.85;;;;;;;21.25;100.00;98361.50;5112914;28;20214;-55
2022/09/17 02:30:20;;;;;;;6.57;3.80;;;;;;;21.22;100.00;98359.16;5112993;28;20272;-54
2022/09/17 02:32:48;;;;;;;5.70;4.18;;;;;;;21.21;100.00;98360.94;5112735;28;20201;-54
2022/09/17 02:35:16;;;;;;;4.38;3.60;;;;;;;21.19;100.00;98359.41;5112864;28;20647;-54
2022/09/17 02:37:43;;;;;;;9.20;3.88;;;;;;;21.19;100.00;98356.78;5113290;28;20202;-53
2022/09/17 02:40:12;;;;;;;11.70;3.85;;;;;;;21.17;100.00;98358.69;5112636;28;20209;-55
2022/09/17 02:42:54;;;;;;;5.03;3.70;;;;;;;21.10;100.00;98349.66;5112842;28;20199;-56
2022/09/17 02:45:30;;;;;;;4.78;3.85;;;;;;;21.06;100.00;98328.00;5112782;28;20226;-56
2022/09/17 02:48:21;;;;;;;4.78;3.80;;;;;;;21.10;100.00;98326.75;5113262;28;20204;-57
2022/09/17 02:51:03;;;;;;;12.20;4.07;;;;;;;21.15;100.00;98331.59;5112814;28;20236;-57
2022/09/17 02:53:37;;;;;;;4.85;4.35;;;;;;;20.99;100.00;98332.19;5112956;28;20704;-57
2022/09/17 02:56:14;;;;;;;5.30;4.30;;;;;;;20.88;100.00;98332.31;5112652;28;20693;-53
2022/09/17 02:58:46;;;;;;;8.52;3.90;;;;;;;20.86;100.00;98321.91;5112402;28;20213;-54
2022/09/17 03:01:22;;;;;;;13.65;6.03;;;;;;;20.86;100.00;98318.41;5112192;28;20597;-53
2022/09/17 03:03:53;;;;;;;8.55;4.40;;;;;;;20.90;100.00;98327.69;5112232;28;20209;-53
2022/09/17 03:06:20;;;;;;;6.05;3.85;;;;;;;20.93;100.00;98328.28;5112214;28;20199;-54
2022/09/17 03:08:47;;;;;;;13.75;4.35;;;;;;;21.01;100.00;98324.94;5112269;28;20201;-58
2022/09/17 03:11:14;;;;;;;7.85;4.00;;;;;;;21.05;100.00;98312.31;5112202;28;20222;-57
2022/09/17 03:13:41;;;;;;;8.50;4.30;;;;;;;21.13;100.00;98305.34;5112267;28;20218;-57
2022/09/17 03:16:09;;;;;;;7.50;4.53;;;;;;;20.99;100.00;98298.69;5112318;28;20195;-57
2022/09/17 03:18:36;;;;;;;8.13;4.65;;;;;;;20.82;100.00;98285.38;5112372;28;20883;-57
2022/09/17 03:21:04;;;;;;;7.28;4.32;;;;;;;20.78;100.00;98291.88;5112575;28;20220;-57
2022/09/17 03:23:31;;;;;;;11.23;4.80;;;;;;;20.67;100.00;98298.13;5112204;28;20205;-56
2022/09/17 03:25:58;;;;;;;6.93;4.47;;;;;;;20.59;100.00;98304.09;5112171;28;20199;-56
2022/09/17 03:28:25;;;;;;;9.27;4.85;;;;;;;20.57;100.00;98292.00;5111876;28;20592;-54
2022/09/17 03:30:52;;;;;;;8.70;4.88;;;;;;;20.70;100.00;98292.56;5112168;28;20760;-57
2022/09/17 03:33:19;;;;;;;11.30;4.90;;;;;;;20.73;100.00;98292.31;5111345;28;20446;-58
2022/09/17 03:35:47;;;;;;;10.98;6.55;;;;;;;20.70;100.00;98289.09;5110185;28;20199;-58
2022/09/17 03:38:16;;;;;;;10.32;5.80;;;;;;;20.53;100.00;98283.56;5110344;28;20195;-58
2022/09/17 03:40:43;;;;;;;9.18;5.32;;;;;;;20.53;100.00;98293.25;5112162;28;20658;-59
2022/09/17 03:43:10;;;;;;;8.45;4.47;;;;;;;20.45;100.00;98277.28;5112027;28;20203;-54
2022/09/17 03:45:37;;;;;;;9.63;5.03;;;;;;;20.35;100.00;98248.28;5111979;28;20213;-54
2022/09/17 03:48:04;;;;;;;10.18;4.82;;;;;;;20.41;100.00;98265.34;5112309;28;20191;-54
2022/09/17 03:50:31;;;;;;;11.82;4.93;;;;;;;20.38;100.00;98271.72;5111578;28;20252;-54
2022/09/17 03:52:57;;;;;;;12.68;5.85;;;;;;;20.40;100.00;98251.34;5111734;28;20202;-54
2022/09/17 03:55:26;;;;;;;14.65;5.50;;;;;;;20.51;100.00;98260.94;5111553;28;20600;-54
2022/09/17 03:57:54;;;;;;;10.45;4.88;;;;;;;20.60;100.00;98262.75;5112105;28;20205;-53
2022/09/17 04:00:21;;;;;;;12.65;4.68;;;;;;;20.63;100.00;98267.75;5111719;28;20198;-53
2022/09/17 04:02:48;;;;;;;10.65;5.60;;;;;;;20.57;100.00;98271.75;5110964;28;20244;-58
2022/09/17 04:05:15;;;;;;;14.57;5.20;;;;;;;20.46;100.00;98269.25;5111825;28;20230;-58
2022/09/17 04:07:42;;;;;;;15.45;5.22;;;;;;;20.41;100.00;98263.56;5111639;28;20199;-58
2022/09/17 04:10:09;;;;;;;16.55;6.22;;;;;;;20.38;100.00;98255.09;5111965;28;20203;-58
2022/09/17 04:12:38;;;;;;;9.68;5.13;;;;;;;20.44;100.00;98265.06;5112840;28;20679;-58
2022/09/17 04:15:05;;;;;;;11.98;5.22;;;;;;;20.36;100.00;98273.66;5112547;28;20205;-58
2022/09/17 04:17:32;;;;;;;10.32;5.53;;;;;;;20.35;100.00;98279.91;5112483;28;20199;-58
2022/09/17 04:19:59;;;;;;;9.07;4.65;;;;;;;20.40;100.00;98282.13;5112443;28;20313;-58
2022/09/17 04:22:27;;;;;;;8.05;4.70;;;;;;;20.42;100.00;98277.56;5112034;28;20596;-59
2022/09/17 04:24:54;;;;;;;15.60;5.05;;;;;;;20.51;100.00;98258.28;5112184;28;20191;-58
2022/09/17 04:27:20;;;;;;;6.07;4.32;;;;;;;20.73;100.00;98260.66;5111782;28;20286;-59
2022/09/17 04:29:49;;;;;;;9.48;4.93;;;;;;;20.82;100.00;98265.09;5112268;28;20701;-58
2022/09/17 04:32:16;;;;;;;10.40;5.15;;;;;;;20.93;100.00;98254.41;5111931;28;20226;-58
2022/09/17 04:34:43;;;;;;;7.75;4.85;;;;;;;20.88;100.00;98234.72;5111849;28;20248;-58
2022/09/17 04:37:09;;;;;;;9.95;4.97;;;;;;;21.10;100.00;98238.84;5112085;28;20290;-58
2022/09/17 04:39:38;;;;;;;9.70;4.65;;;;;;;21.11;100.00;98233.41;5111701;28;20194;-59
2022/09/17 04:42:05;;;;;;;10.60;5.30;;;;;;;21.08;100.00;98233.72;5112118;28;20191;-59
2022/09/17 04:44:32;;;;;;;11.10;5.50;;;;;;;21.18;100.00;98244.25;5111336;28;20199;-53
2022/09/17 04:47:00;;;;;;;17.40;6.18;;;;;;;21.15;100.00;98261.19;5111137;28;20194;-54
2022/09/17 04:49:28;;;;;;;12.52;6.53;;;;;;;21.12;100.00;98273.81;5111500;28;20219;-59
2022/09/17 04:51:55;;;;;;;17.20;6.05;;;;;;;21.18;100.00;98268.00;5112177;28;20233;-58
2022/09/17 04:54:23;;;;;;;10.98;5.90;;;;;;;21.20;100.00;98279.28;5111799;28;20202;-58
2022/09/17 04:56:50;;;;;;;9.07;5.45;;;;;;;21.17;100.00;98272.44;5111857;28;20202;-59
2022/09/17 04:59:17;;;;;;;9.52;5.63;;;;;;;21.14;100.00;98277.16;5111889;28;20562;-58
2022/09/17 05:01:44;;;;;;;9.55;5.05;;;;;;;21.22;100.00;98282.63;5111910;28;20185;-59
2022/09/17 05:04:12;;;;;;;13.68;5.60;;;;;;;21.38;100.00;98285.50;5111926;28;20675;-59
2022/09/17 05:06:39;;;;;;;11.98;5.53;;;;;;;21.57;100.00;98277.53;5111668;28;20650;-54
2022/09/17 05:09:06;;;;;;;13.43;5.47;;;;;;;21.83;99.12;98269.78;5110642;28;20199;-54
2022/09/17 05:11:33;;;;;;;7.15;5.25;;;;;;;22.56;94.14;98275.97;5111000;28;20309;-58
2022/09/17 05:14:00;;;;;;;6.40;4.57;;;;;;;23.80;86.12;98273.22;5111462;28;20208;-59
2022/09/17 05:16:27;;;;;;;8.48;4.45;;;;;;;25.33;76.19;98279.88;5110839;28;20227;-54
2022/09/17 05:18:54;;;;;;;10.45;4.60;;;;;;;26.19;69.24;98286.34;5109497;28;20609;-55
2022/09/17 05:21:23;;;;;;;10.38;4.78;;;;;;;27.30;63.96;98293.03;5109295;28;20194;-54
2022/09/17 05:23:50;;;;;;;8.07;4.63;;;;;;;28.55;59.50;98304.69;5106974;28;20190;-54
2022/09/17 05:26:17;;;;;;;7.95;4.63;;;;;;;29.17;54.77;98264.03;5109333;28;20588;-53
2022/09/17 05:28:44;;;;;;;10.52;4.05;;;;;;;29.53;53.02;98304.03;5109371;28;20281;-55
2022/09/17 05:31:11;;;;;;;8.30;3.88;;;;;;;30.09;51.29;98310.22;5109691;28;20707;-55
2022/09/17 05:33:38;;;;;;;9.40;4.10;;;;;;;30.54;49.21;98321.34;5109963;28;20230;-54
2022/09/17 05:36:05;;;;;;;8.77;4.13;;;;;;;30.46;48.89;98316.16;5108660;28;20205;-55
2022/09/17 05:38:34;;;;;;;8.55;3.45;;;;;;;30.67;47.94;98308.00;5108855;28;20252;-54
2022/09/17 05:41:04;;;;;;;12.13;4.03;;;;;;;30.78;47.45;98318.16;5110933;28;20202;-54
2022/09/17 05:43:31;;;;;;;10.00;4.20;;;;;;;31.07;46.67;98329.53;5112550;28;20562;-55
2022/09/17 05:46:02;;;;;;;11.05;4.68;;;;;;;31.16;46.41;98328.34;5112286;28;20210;-55
2022/09/17 05:48:29;;;;;;;10.23;4.47;;;;;;;30.76;46.99;98330.91;5112419;28;20209;-54
2022/09/17 05:50:56;;;;;;;8.90;4.20;;;;;;;30.27;47.99;98339.09;5112549;28;20198;-55
2022/09/17 05:53:23;;;;;;;11.48;5.03;;;;;;;29.27;50.13;98340.19;5112169;28;20290;-55
2022/09/17 05:55:51;;;;;;;9.90;5.18;;;;;;;27.83;55.21;98333.84;5112252;28;20202;-54
2022/09/17 05:58:19;;;;;;;7.70;4.72;;;;;;;26.92;59.15;98331.22;5112614;28;20201;-58
2022/09/17 06:00:48;;;;;;;15.43;5.90;;;;;;;26.80;60.24;98324.63;5110804;28;20802;-61
2022/09/17 06:03:17;;;;;;;16.05;5.80;;;;;;;27.80;57.15;98343.03;5112250;28;20222;-60
2022/09/17 06:05:52;;;;;;;13.57;4.72;;;;;;;29.18;52.86;98356.53;5111943;28;20201;-60
2022/09/17 06:08:19;;;;;;;10.63;4.50;;;;;;;29.04;52.24;98355.56;5111675;28;20200;-60
2022/09/17 06:10:46;;;;;;;20.83;4.50;;;;;;;28.57;53.25;98366.72;5111917;28;20208;-61
2022/09/17 06:13:14;;;;;;;10.55;4.97;;;;;;;28.34;54.57;98372.16;5112037;28;20219;-61
2022/09/17 06:15:41;;;;;;;12.88;4.78;;;;;;;28.92;53.57;98364.28;5112104;28;20199;-61
2022/09/17 06:18:08;;;;;;;12.88;4.85;;;;;;;29.11;52.97;98363.69;5111625;28;20201;-61
2022/09/17 06:20:35;;;;;;;13.98;4.32;;;;;;;29.50;51.57;98361.41;5111920;28;20197;-61
2022/09/17 06:23:01;;;;;;;12.65;4.03;;;;;;;29.97;50.42;98359.94;5111966;28;20197;-53
2022/09/17 06:25:28;;;;;;;11.95;4.28;;;;;;;30.98;47.89;98369.09;5111612;28;20201;-54
2022/09/17 06:27:55;;;;;;;14.60;4.45;;;;;;;31.49;46.33;98374.78;5111994;28;20665;-53
2022/09/17 06:30:23;;;;;;;6.88;3.67;;;;;;;30.61;47.91;98381.94;5111685;28;20199;-54
2022/09/17 06:32:50;;;;;;;7.05;3.70;;;;;;;29.31;51.74;98386.06;5069163;28;1207199;-53
2022/09/17 06:35:17;;;;;;;7.47;3.85;;;;;;;28.44;54.12;98391.38;5112664;28;20197;-54
2022/09/17 06:37:44;;;;;;;20.15;4.15;;;;;;;27.26;58.73;98378.81;5113485;28;20205;-53
2022/09/17 06:40:11;;;;;;;7.72;4.80;;;;;;;26.46;61.99;98379.03;5112838;28;20241;-54
2022/09/17 06:42:38;;;;;;;8.48;3.85;;;;;;;26.19;63.80;98395.38;5112990;28;20197;-54
2022/09/17 06:45:06;;;;;;;11.48;4.65;;;;;;;26.04;65.16;98400.59;5112937;28;20761;-54
2022/09/17 06:47:34;;;;;;;9.02;4.80;;;;;;;25.93;66.59;98392.97;5112620;28;20259;-55
2022/09/17 06:50:01;;;;;;;9.48;5.38;;;;;;;25.76;67.26;98392.13;5112760;28;20195;-60
2022/09/17 06:52:28;;;;;;;6.85;4.90;;;;;;;26.17;66.23;98384.09;5111481;28;20226;-60
2022/09/17 06:54:55;;;;;;;5.18;4.10;;;;;;;27.58;60.68;98381.25;5112466;28;20195;-60
2022/09/17 06:57:22;;;;;;;9.27;4.68;;;;;;;29.06;55.44;98377.59;5112758;28;20202;-62
2022/09/17 06:59:50;;;;;;;6.25;4.10;;;;;;;29.53;52.79;98381.59;5111494;28;20592;-63
2022/09/17 07:02:17;;;;;;;5.00;3.95;;;;;;;30.70;49.10;98371.88;5111603;28;20558;-54
2022/09/17 07:04:45;;;;;;;9.75;4.45;;;;;;;32.42;45.47;98395.19;5111568;28;20248;-55
2022/09/17 07:07:12;;;;;;;8.85;4.03;;;;;;;32.89;42.75;98421.94;5111244;28;20195;-55
2022/09/17 07:09:39;;;;;;;6.57;4.25;;;;;;;32.16;44.21;98405.97;5111491;28;20222;-58
2022/09/17 07:12:08;;;;;;;12.07;6.05;;;;;;;31.12;46.41;98388.75;5111360;28;20225;-54
2022/09/17 07:14:35;;;;;;;18.35;7.97;;;;;;;29.72;49.15;98383.59;5111307;28;20217;-54
2022/09/17 07:17:02;;;;;;;11.00;4.72;;;;;;;28.90;52.26;98364.47;5111265;28;20198;-54
2022/09/17 07:19:29;;;;;;;12.98;3.70;;;;;;;28.23;54.06;98353.13;5110775;28;20248;-54
2022/09/17 07:21:57;;;;;;;8.95;3.88;;;;;;;27.28;57.14;98348.31;5111067;28;20198;-55
2022/09/17 07:24:24;;;;;;;9.82;4.55;;;;;;;26.89;59.69;98358.19;5111369;28;20664;-55
2022/09/17 07:26:51;;;;;;;10.73;4.38;;;;;;;26.46;61.86;98354.25;5111368;28;20191;-55
2022/09/17 07:29:19;;;;;;;10.07;4.15;;;;;;;26.06;64.37;98371.19;5110661;28;20247;-56
2022/09/17 07:31:46;;;;;;;12.57;5.35;;;;;;;26.25;63.63;98370.78;5111870;28;20656;-55
2022/09/17 07:34:13;;;;;;;12.18;5.35;;;;;;;27.57;59.06;98346.75;5111309;28;20763;-54
2022/09/17 07:36:40;;;;;;;13.52;4.30;;;;;;;28.26;56.45;98350.09;5111648;28;20198;-53
2022/09/17 07:39:09;;;;;;;14.93;5.80;;;;;;;28.96;54.09;98339.69;5111660;28;20688;-54
2022/09/17 07:41:36;;;;;;;24.55;12.43;;;;;;;28.89;53.47;98339.59;5111495;28;20614;-53
2022/09/17 07:44:03;;;;;;;16.17;6.47;;;;;;;28.75;53.92;98332.44;5111724;28;20194;-54
2022/09/17 07:46:30;;;;;;;20.13;5.32;;;;;;;29.52;52.31;98340.66;5111041;28;20203;-54
2022/09/17 07:48:57;;;;;;;11.32;4.45;;;;;;;31.18;47.61;98337.81;5111176;28;20204;-54
2022/09/17 07:51:27;;;;;;;8.38;4.13;;;;;;;33.43;41.87;98348.81;5111167;28;20297;-53
2022/09/17 07:53:55;;;;;;;11.25;3.95;;;;;;;35.91;36.37;98344.34;5110250;28;20655;-55
2022/09/17 07:56:24;;;;;;;7.30;3.67;;;;;;;37.60;32.66;98360.97;5109587;28;20222;-55
2022/09/17 07:58:51;;;;;;;6.28;3.83;;;;;;;37.77;32.44;98359.94;5109254;28;20217;-55
2022/09/17 08:01:19;;;;;;;7.53;4.28;;;;;;;36.35;33.65;98357.22;5110569;28;20208;-56
2022/09/17 08:03:49;;;;;;;11.05;3.70;;;;;;;34.90;36.72;98347.94;5110369;28;20194;-55
2022/09/17 08:06:18;;;;;;;7.38;4.28;;;;;;;34.53;37.68;98355.25;5110830;28;20198;-53
2022/09/17 08:08:45;;;;;;;8.18;4.00;;;;;;;34.05;38.95;98361.34;5111032;28;20280;-53
2022/09/17 08:11:14;;;;;;;12.88;3.78;;;;;;;33.84;40.13;98357.22;5110706;28;20281;-54
2022/09/17 08:13:43;;;;;;;8.13;3.80;;;;;;;32.98;40.83;98330.06;5110497;28;20226;-54
2022/09/17 08:16:13;;;;;;;5.78;3.92;;;;;;;32.41;42.17;98321.00;5110586;28;20230;-54
2022/09/17 08:18:40;;;;;;;7.95;3.78;;;;;;;31.89;43.49;98329.19;5110577;28;20206;-53
2022/09/17 08:21:09;;;;;;;10.43;5.60;;;;;;;31.39;45.14;98350.22;5111072;28;20590;-53
2022/09/17 08:23:38;;;;;;;8.70;5.00;;;;;;;31.01;46.01;98352.63;5110696;28;20187;-53
2022/09/17 08:26:07;;;;;;;13.23;6.45;;;;;;;30.82;46.75;98342.66;5110632;28;20734;-53
2022/09/17 08:28:35;;;;;;;6.20;4.00;;;;;;;30.05;48.31;98319.63;5110755;28;20267;-53
2022/09/17 08:31:05;;;;;;;9.25;4.30;;;;;;;30.02;49.14;98333.44;5110535;28;20243;-54
2022/09/17 08:33:32;;;;;;;11.90;5.90;;;;;;;29.67;49.04;98321.03;5110243;28;20226;-53
2022/09/17 08:35:59;;;;;;;12.32;7.88;;;;;;;29.35;50.21;98323.19;5110531;28;20194;-54
2022/09/17 08:38:26;;;;;;;10.30;6.68;;;;;;;29.29;50.74;98333.81;5110245;28;20581;-53
2022/09/17 08:41:08;;;;;;;11.30;4.28;;;;;;;29.19;50.79;98328.81;5110351;28;20222;-53
2022/09/17 08:43:40;;;;;;;12.80;3.90;;;;;;;28.88;51.75;98315.75;5110105;28;20212;-53
2022/09/17 08:46:10;;;;;;;29.58;25.88;;;;;;;28.79;52.59;98317.69;5110241;28;20203;-52
2022/09/17 08:48:41;;;;;;;6.28;4.88;;;;;;;28.70;52.59;98320.66;5110173;28;20233;-53
2022/09/17 08:51:17;;;;;;;11.05;4.65;;;;;;;28.95;52.07;98321.16;5110101;28;20281;-60
2022/09/17 08:53:57;;;;;;;8.45;4.50;;;;;;;29.11;51.29;98320.94;5110616;28;20310;-59
2022/09/17 08:56:26;;;;;;;9.48;3.88;;;;;;;29.21;50.65;98308.91;5110599;28;20233;-59
2022/09/17 08:59:04;;;;;;;6.75;3.47;;;;;;;29.41;50.16;98301.06;5110697;28;20633;-59
2022/09/17 09:01:45;;;;;;;14.25;9.25;;;;;;;29.17;50.36;98296.09;5110291;28;20286;-59
2022/09/17 09:04:33;;;;;;;13.70;9.07;;;;;;;28.77;52.16;98284.19;5110517;28;20659;-59
2022/09/17 09:07:04;;;;;;;6.13;4.03;;;;;;;28.85;52.16;98274.22;5110465;28;20194;-59
2022/09/17 09:09:37;;;;;;;10.43;3.65;;;;;;;28.72;52.49;98262.53;5110032;28;20197;-59
2022/09/17 09:12:10;;;;;;;46.70;41.80;;;;;;;28.66;52.99;98253.47;5110095;28;20635;-58
2022/09/17 09:14:45;;;;;;;19.77;15.95;;;;;;;28.52;52.81;98265.00;5110414;28;20190;-58
2022/09/17 09:17:16;;;;;;;11.90;10.32;;;;;;;28.48;53.01;98256.53;5110190;28;20189;-59
2022/09/17 09:19:45;;;;;;;9.35;4.45;;;;;;;28.47;52.77;98244.22;5110030;28;20199;-54
2022/09/17 09:22:32;;;;;;;10.27;4.47;;;;;;;28.69;52.03;98241.56;5109511;28;20586;-54
2022/09/17 09:25:11;;;;;;;12.25;3.78;;;;;;;28.89;51.07;98237.28;5109850;28;20198;-54
2022/09/17 09:27:48;;;;;;;8.52;3.80;;;;;;;28.82;50.81;98223.03;5110053;28;20190;-54
2022/09/17 09:30:22;;;;;;;7.65;3.60;;;;;;;29.01;50.95;98208.22;5109946;28;20208;-54
2022/09/17 09:32:58;;;;;;;6.70;5.20;;;;;;;29.18;50.91;98225.59;5109220;28;20222;-54
2022/09/17 09:35:28;;;;;;;14.45;6.57;;;;;;;29.32;50.06;98205.97;5109947;28;20645;-53
2022/09/17 09:38:01;;;;;;;19.48;12.60;;;;;;;29.39;49.65;98201.53;5109814;28;20195;-54
2022/09/17 09:40:37;;;;;;;46.40;41.95;;;;;;;29.29;49.92;98200.19;5109432;28;20208;-53
2022/09/17 09:43:17;;;;;;;13.65;12.40;;;;;;;28.93;50.33;98205.66;5109547;28;20195;-53
2022/09/17 09:46:14;;;;;;;9.30;3.80;;;;;;;29.26;48.80;98194.22;5109473;28;20194;-53
2022/09/17 09:48:54;;;;;;;14.13;4.30;;;;;;;29.43;48.24;98191.28;5104836;28;20277;-54
2022/09/17 09:51:34;;;;;;;7.07;3.95;;;;;;;29.53;47.80;98197.09;5109329;28;20197;-54
2022/09/17 09:54:17;;;;;;;10.98;7.72;;;;;;;29.74;47.34;98188.97;5109675;28;20602;-54
2022/09/17 09:56:55;;;;;;;21.63;16.48;;;;;;;29.83;47.01;98193.13;5109620;28;20570;-54
2022/09/17 09:59:22;;;;;;;21.63;16.55;;;;;;;29.65;46.99;98194.69;5109339;28;20226;-53
2022/09/17 10:01:49;;;;;;;10.73;7.65;;;;;;;29.75;47.19;98182.63;5109439;28;20202;-58
2022/09/17 10:04:20;;;;;;;8.00;3.47;;;;;;;29.74;46.72;98188.16;5109562;28;20582;-58
2022/09/17 10:06:49;;;;;;;19.13;9.93;;;;;;;29.87;47.00;98173.00;5109764;28;20216;-58
2022/09/17 10:09:20;;;;;;;8.93;3.92;;;;;;;29.93;46.45;98179.38;5109530;28;20285;-58
2022/09/17 10:12:00;;;;;;;8.77;4.20;;;;;;;30.10;45.89;98172.69;5109646;28;20193;-58
2022/09/17 10:14:29;;;;;;;8.88;4.07;;;;;;;29.92;47.06;98164.34;5109756;28;20220;-58
2022/09/17 10:17:12;;;;;;;9.38;3.95;;;;;;;29.96;47.16;98173.69;5109717;28;20203;-58
2022/09/17 10:19:41;;;;;;;12.27;4.13;;;;;;;30.00;47.03;98182.97;5109643;28;20217;-58
2022/09/17 10:22:27;;;;;;;10.02;4.00;;;;;;;29.76;47.41;98188.78;5109536;28;20230;-58
2022/09/17 10:24:56;;;;;;;16.48;9.82;;;;;;;29.57;48.08;98215.19;5109697;28;20199;-58
2022/09/17 10:27:24;;;;;;;23.30;7.07;;;;;;;29.45;51.12;98218.66;5112169;28;20213;-58
2022/09/17 10:29:56;;;;;;;30.58;7.53;;;;;;;29.16;60.18;98249.84;5113276;28;20201;-58
2022/09/17 10:32:23;;;;;;;23.20;6.60;;;;;;;28.71;75.46;98207.50;5113142;28;20205;-58
2022/09/17 10:35:04;;;;;;;13.93;6.07;;;;;;;28.24;74.88;98155.47;5112855;28;20230;-58
2022/09/17 10:37:43;;;;;;;12.50;5.63;;;;;;;27.78;78.40;98153.06;5112832;28;20638;-58
2022/09/17 10:40:28;;;;;;;16.08;6.72;;;;;;;27.41;89.16;98196.66;5112719;28;20681;-58
2022/09/17 10:43:21;;;;;;;17.77;6.15;;;;;;;27.13;90.57;98214.25;5112839;28;20199;-58
2022/09/17 10:45:57;;;;;;;15.95;6.82;;;;;;;26.92;96.90;98230.03;5112764;28;20659;-58
2022/09/17 10:48:27;;;;;;;22.02;7.32;;;;;;;26.52;100.00;98197.41;5112842;27;20662;-54
2022/09/17 10:50:57;;;;;;;13.23;6.18;;;;;;;26.45;96.54;98190.28;5112705;28;20569;-54
2022/09/17 10:53:25;;;;;;;12.10;7.03;;;;;;;26.14;100.00;98214.22;5112519;28;20237;-54
2022/09/17 10:56:01;;;;;;;21.63;8.25;;;;;;;25.96;100.00;98217.16;5112349;28;20195;-54
2022/09/17 10:58:39;;;;;;;14.38;6.63;;;;;;;25.86;100.00;98227.97;5112109;28;20200;-54
2022/09/17 11:01:17;;;;;;;11.75;6.80;;;;;;;25.81;100.00;98262.22;5112310;28;20198;-54
2022/09/17 11:04:05;;;;;;;11.48;6.75;;;;;;;25.68;100.00;98289.34;5112383;28;20191;-53
2022/09/17 11:07:06;;;;;;;22.30;7.88;;;;;;;25.66;100.00;98247.97;5112291;28;20557;-53
2022/09/17 11:09:44;;;;;;;13.82;6.28;;;;;;;25.67;100.00;98271.72;5112061;28;20284;-54
2022/09/17 11:12:30;;;;;;;10.25;6.60;;;;;;;25.65;100.00;98302.13;5112005;28;20208;-54
2022/09/17 11:15:06;;;;;;;11.40;5.85;;;;;;;25.64;100.00;98313.75;5112205;28;20624;-54
2022/09/17 11:17:49;;;;;;;11.48;6.53;;;;;;;25.42;100.00;98365.72;5112336;28;20665;-54
2022/09/17 11:20:30;;;;;;;14.57;8.00;;;;;;;25.38;100.00;98398.94;5111999;28;20653;-54
2022/09/17 11:23:23;;;;;;;12.38;5.28;;;;;;;25.24;100.00;98464.16;5111938;28;20198;-53
2022/09/17 11:25:55;;;;;;;11.80;4.60;;;;;;;24.84;100.00;98496.66;5112312;28;20546;-58
2022/09/17 11:28:39;;;;;;;18.25;6.10;;;;;;;24.41;100.00;98491.44;5112419;28;20577;-58
2022/09/17 11:31:21;;;;;;;10.90;4.93;;;;;;;23.87;100.00;98541.88;5112448;28;20198;-58
2022/09/17 11:34:20;;;;;;;11.63;4.15;;;;;;;23.38;100.00;98510.56;5112428;28;20232;-58
2022/09/17 11:36:54;;;;;;;7.82;3.58;;;;;;;23.17;100.00;98479.88;5112117;28;20268;-58
2022/09/17 11:39:27;;;;;;;7.10;3.10;;;;;;;23.10;100.00;98460.28;5111440;28;20191;-58
2022/09/17 11:41:58;;;;;;;4.75;2.92;;;;;;;22.98;100.00;98435.03;5112208;28;20565;-58
2022/09/17 11:44:30;;;;;;;8.63;3.30;;;;;;;23.08;100.00;98435.78;5111480;28;20281;-53